sensor_id;sensor_type;location;lat;lon;timestamp;temperature;humidity
32728;DHT22;55292;51.844;19.246;2022-12-29T00:03:10;4.90;99.90
32728;DHT22;55292;51.844;19.246;2022-12-29T00:08:13;4.90;99.90
32728;DHT22;55292;51.844;19.246;2022-12-29T00:13:16;5.00;99.90
32728;DHT22;55292;51.844;19.246;2022-12-29T00:18:36;5.00;99.90
32728;DHT22;55292;51.844;19.246;2022-12-29T00:23:39;5.00;99.90
32728;DHT22;55292;51.844;19.246;2022-12-29T00:29:00;5.10;99.90
32728;DHT22;55292;51.844;19.246;2022-12-29T00:34:23;5.00;99.90
32728;DHT22;55292;51.844;19.246;2022-12-29T00:39:45;5.00;99.90
32728;DHT22;55292;51.844;19.246;2022-12-29T00:45:06;5.00;99.90
32728;DHT22;55292;51.844;19.246;2022-12-29T00:50:09;4.90;99.90
32728;DHT22;55292;51.844;19.246;2022-12-29T00:55:11;4.90;99.90
32728;DHT22;55292;51.844;19.246;2022-12-29T01:00:14;4.90;99.90
32728;DHT22;55292;51.844;19.246;2022-12-29T01:05:18;4.80;99.90
32728;DHT22;55292;51.844;19.246;2022-12-29T01:10:21;4.80;99.90
32728;DHT22;55292;51.844;19.246;2022-12-29T01:15:24;4.70;99.90
32728;DHT22;55292;51.844;19.246;2022-12-29T01:20:26;4.70;99.90
32728;DHT22;55292;51.844;19.246;2022-12-29T01:25:31;4.80;99.90
32728;DHT22;55292;51.844;19.246;2022-12-29T01:30:35;4.90;99.90
32728;DHT22;55292;51.844;19.246;2022-12-29T01:35:38;5.00;99.90
32728;DHT22;55292;51.844;19.246;2022-12-29T01:40:47;5.00;99.90
32728;DHT22;55292;51.844;19.246;2022-12-29T01:45:54;5.00;99.90
32728;DHT22;55292;51.844;19.246;2022-12-29T01:50:58;5.00;99.90
32728;DHT22;55292;51.844;19.246;2022-12-29T01:56:05;4.90;99.90
32728;DHT22;55292;51.844;19.246;2022-12-29T02:01:08;4.90;99.90
32728;DHT22;55292;51.844;19.246;2022-12-29T02:06:15;5.00;99.90
32728;DHT22;55292;51.844;19.246;2022-12-29T02:11:23;5.00;99.90
32728;DHT22;55292;51.844;19.246;2022-12-29T02:16:45;5.00;99.90
32728;DHT22;55292;51.844;19.246;2022-12-29T02:48:04;4.80;99.90
32728;DHT22;55292;51.844;19.246;2022-12-29T02:53:12;4.80;99.90
32728;DHT22;55292;51.844;19.246;2022-12-29T02:58:20;4.80;99.90
32728;DHT22;55292;51.844;19.246;2022-12-29T03:14:17;4.80;99.90
32728;DHT22;55292;51.844;19.246;2022-12-29T03:19:47;4.80;99.90
32728;DHT22;55292;51.844;19.246;2022-12-29T03:24:56;4.80;99.90
32728;DHT22;55292;51.844;19.246;2022-12-29T03:30:01;4.80;99.90
32728;DHT22;55292;51.844;19.246;2022-12-29T03:35:07;4.80;99.90
32728;DHT22;55292;51.844;19.246;2022-12-29T03:40:13;4.80;99.90
32728;DHT22;55292;51.844;19.246;2022-12-29T03:45:16;4.80;99.90
32728;DHT22;55292;51.844;19.246;2022-12-29T03:50:19;4.80;99.90
32728;DHT22;55292;51.844;19.246;2022-12-29T03:55:22;4.90;99.90
32728;DHT22;55292;51.844;19.246;2022-12-29T04:00:25;4.90;99.90
32728;DHT22;55292;51.844;19.246;2022-12-29T04:05:28;4.90;99.90
32728;DHT22;55292;51.844;19.246;2022-12-29T04:10:30;4.90;99.90
32728;DHT22;55292;51.844;19.246;2022-12-29T04:15:36;4.90;99.90
32728;DHT22;55292;51.844;19.246;2022-12-29T04:20:39;4.90;99.90
32728;DHT22;55292;51.844;19.246;2022-12-29T04:26:00;5.00;99.90
32728;DHT22;55292;51.844;19.246;2022-12-29T04:31:04;5.00;99.90
32728;DHT22;55292;51.844;19.246;2022-12-29T04:36:13;4.90;99.90
32728;DHT22;55292;51.844;19.246;2022-12-29T04:41:17;5.00;99.90
32728;DHT22;55292;51.844;19.246;2022-12-29T04:46:20;5.00;99.90
32728;DHT22;55292;51.844;19.246;2022-12-29T04:51:34;5.20;99.90
32728;DHT22;55292;51.844;19.246;2022-12-29T04:56:37;5.20;99.90
32728;DHT22;55292;51.844;19.246;2022-12-29T05:01:40;5.30;99.90
32728;DHT22;55292;51.844;19.246;2022-12-29T05:06:45;5.30;99.90
32728;DHT22;55292;51.844;19.246;2022-12-29T05:11:48;5.20;99.90
32728;DHT22;55292;51.844;19.246;2022-12-29T05:16:51;7.00;99.90
32728;DHT22;55292;51.844;19.246;2022-12-29T05:21:54;5.10;99.90
32728;DHT22;55292;51.844;19.246;2022-12-29T05:26:57;5.20;99.90
32728;DHT22;55292;51.844;19.246;2022-12-29T05:32:13;5.10;99.90
32728;DHT22;55292;51.844;19.246;2022-12-29T05:37:17;5.30;99.90
32728;DHT22;55292;51.844;19.246;2022-12-29T05:42:20;5.40;99.90
32728;DHT22;55292;51.844;19.246;2022-12-29T05:47:31;5.50;99.90
32728;DHT22;55292;51.844;19.246;2022-12-29T05:53:00;5.60;99.90
32728;DHT22;55292;51.844;19.246;2022-12-29T05:58:03;5.60;99.90
32728;DHT22;55292;51.844;19.246;2022-12-29T06:03:06;5.50;99.90
32728;DHT22;55292;51.844;19.246;2022-12-29T06:08:09;5.50;99.90
32728;DHT22;55292;51.844;19.246;2022-12-29T06:13:12;5.50;99.90
32728;DHT22;55292;51.844;19.246;2022-12-29T06:18:17;5.60;99.90
32728;DHT22;55292;51.844;19.246;2022-12-29T06:23:22;5.50;99.90
32728;DHT22;55292;51.844;19.246;2022-12-29T06:28:24;5.50;99.90
32728;DHT22;55292;51.844;19.246;2022-12-29T06:33:28;5.50;99.90
32728;DHT22;55292;51.844;19.246;2022-12-29T06:38:31;5.50;99.90
32728;DHT22;55292;51.844;19.246;2022-12-29T06:43:34;5.50;99.90
32728;DHT22;55292;51.844;19.246;2022-12-29T06:48:51;5.50;99.90
32728;DHT22;55292;51.844;19.246;2022-12-29T06:53:54;5.60;99.90
32728;DHT22;55292;51.844;19.246;2022-12-29T06:58:56;5.60;99.90
32728;DHT22;55292;51.844;19.246;2022-12-29T07:03:59;5.60;99.90
32728;DHT22;55292;51.844;19.246;2022-12-29T07:09:01;5.60;99.90
32728;DHT22;55292;51.844;19.246;2022-12-29T07:14:04;5.80;99.90
32728;DHT22;55292;51.844;19.246;2022-12-29T07:19:07;5.80;99.90
32728;DHT22;55292;51.844;19.246;2022-12-29T07:24:09;5.80;99.90
32728;DHT22;55292;51.844;19.246;2022-12-29T07:29:12;5.80;99.90
32728;DHT22;55292;51.844;19.246;2022-12-29T07:34:14;5.80;99.90
32728;DHT22;55292;51.844;19.246;2022-12-29T07:39:16;5.80;99.90
32728;DHT22;55292;51.844;19.246;2022-12-29T07:44:19;6.00;99.90
32728;DHT22;55292;51.844;19.246;2022-12-29T07:49:44;6.00;99.90
32728;DHT22;55292;51.844;19.246;2022-12-29T07:54:47;6.00;99.90
32728;DHT22;55292;51.844;19.246;2022-12-29T07:59:50;6.00;99.90
32728;DHT22;55292;51.844;19.246;2022-12-29T08:04:52;6.00;99.90
32728;DHT22;55292;51.844;19.246;2022-12-29T08:09:55;6.00;99.90
32728;DHT22;55292;51.844;19.246;2022-12-29T08:14:57;5.90;99.90
32728;DHT22;55292;51.844;19.246;2022-12-29T08:20:00;5.90;99.90
32728;DHT22;55292;51.844;19.246;2022-12-29T08:25:03;6.00;99.90
32728;DHT22;55292;51.844;19.246;2022-12-29T08:30:07;6.10;99.90
32728;DHT22;55292;51.844;19.246;2022-12-29T08:35:10;6.30;99.90
32728;DHT22;55292;51.844;19.246;2022-12-29T08:40:12;6.40;99.90
32728;DHT22;55292;51.844;19.246;2022-12-29T08:45:16;6.40;99.90
32728;DHT22;55292;51.844;19.246;2022-12-29T08:50:19;6.50;99.90
32728;DHT22;55292;51.844;19.246;2022-12-29T08:55:21;6.50;99.90
32728;DHT22;55292;51.844;19.246;2022-12-29T09:00:25;6.50;99.90
32728;DHT22;55292;51.844;19.246;2022-12-29T09:05:28;6.60;99.90
32728;DHT22;55292;51.844;19.246;2022-12-29T09:10:31;6.70;99.90
32728;DHT22;55292;51.844;19.246;2022-12-29T09:15:33;6.80;99.90
32728;DHT22;55292;51.844;19.246;2022-12-29T09:20:36;6.80;99.90
32728;DHT22;55292;51.844;19.246;2022-12-29T09:25:39;7.00;99.90
32728;DHT22;55292;51.844;19.246;2022-12-29T09:30:42;7.10;99.90
32728;DHT22;55292;51.844;19.246;2022-12-29T09:35:48;7.20;99.90
32728;DHT22;55292;51.844;19.246;2022-12-29T09:41:24;7.30;99.90
32728;DHT22;55292;51.844;19.246;2022-12-29T09:46:38;7.50;99.90
32728;DHT22;55292;51.844;19.246;2022-12-29T09:51:44;7.60;99.90
32728;DHT22;55292;51.844;19.246;2022-12-29T09:56:49;7.50;99.90
32728;DHT22;55292;51.844;19.246;2022-12-29T10:02:04;7.40;99.90
32728;DHT22;55292;51.844;19.246;2022-12-29T10:18:13;7.50;99.90
32728;DHT22;55292;51.844;19.246;2022-12-29T10:28:36;7.80;99.90
32728;DHT22;55292;51.844;19.246;2022-12-29T10:33:41;7.90;99.90
32728;DHT22;55292;51.844;19.246;2022-12-29T10:38:48;7.90;99.90
32728;DHT22;55292;51.844;19.246;2022-12-29T10:43:56;7.90;99.90
32728;DHT22;55292;51.844;19.246;2022-12-29T10:49:17;7.90;99.90
32728;DHT22;55292;51.844;19.246;2022-12-29T10:54:29;7.90;99.90
32728;DHT22;55292;51.844;19.246;2022-12-29T10:59:36;7.90;99.90
32728;DHT22;55292;51.844;19.246;2022-12-29T11:15:48;7.90;99.90
32728;DHT22;55292;51.844;19.246;2022-12-29T11:20:56;7.90;99.90
32728;DHT22;55292;51.844;19.246;2022-12-29T11:31:21;8.10;99.90
32728;DHT22;55292;51.844;19.246;2022-12-29T11:36:24;8.00;99.90
32728;DHT22;55292;51.844;19.246;2022-12-29T11:41:29;8.10;99.90
32728;DHT22;55292;51.844;19.246;2022-12-29T11:46:34;8.10;99.90
32728;DHT22;55292;51.844;19.246;2022-12-29T11:51:45;8.40;99.90
32728;DHT22;55292;51.844;19.246;2022-12-29T11:56:48;8.40;99.90
32728;DHT22;55292;51.844;19.246;2022-12-29T12:01:51;8.40;99.90
32728;DHT22;55292;51.844;19.246;2022-12-29T12:07:02;8.40;99.90
32728;DHT22;55292;51.844;19.246;2022-12-29T12:12:13;8.50;99.90
32728;DHT22;55292;51.844;19.246;2022-12-29T12:17:25;8.60;99.90
32728;DHT22;55292;51.844;19.246;2022-12-29T12:28:28;8.50;99.90
32728;DHT22;55292;51.844;19.246;2022-12-29T12:33:42;8.50;99.90
32728;DHT22;55292;51.844;19.246;2022-12-29T12:44:32;8.70;99.90
32728;DHT22;55292;51.844;19.246;2022-12-29T12:55:05;8.70;99.90
32728;DHT22;55292;51.844;19.246;2022-12-29T13:00:17;8.80;99.90
32728;DHT22;55292;51.844;19.246;2022-12-29T13:10:54;8.80;99.90
32728;DHT22;55292;51.844;19.246;2022-12-29T13:21:38;8.70;99.90
32728;DHT22;55292;51.844;19.246;2022-12-29T13:38:29;8.90;99.90
32728;DHT22;55292;51.844;19.246;2022-12-29T13:43:35;11.50;99.90
32728;DHT22;55292;51.844;19.246;2022-12-29T13:48:59;9.00;99.90
32728;DHT22;55292;51.844;19.246;2022-12-29T13:59:44;9.00;99.90
32728;DHT22;55292;51.844;19.246;2022-12-29T14:05:02;8.90;99.90
32728;DHT22;55292;51.844;19.246;2022-12-29T14:10:06;8.80;99.90
32728;DHT22;55292;51.844;19.246;2022-12-29T14:15:26;8.70;99.90
32728;DHT22;55292;51.844;19.246;2022-12-29T14:20:29;8.60;99.90
32728;DHT22;55292;51.844;19.246;2022-12-29T14:25:52;8.70;99.90
32728;DHT22;55292;51.844;19.246;2022-12-29T14:31:32;8.50;99.90
32728;DHT22;55292;51.844;19.246;2022-12-29T14:36:33;8.40;99.90
32728;DHT22;55292;51.844;19.246;2022-12-29T14:41:38;8.50;99.90
32728;DHT22;55292;51.844;19.246;2022-12-29T14:51:50;8.40;99.90
32728;DHT22;55292;51.844;19.246;2022-12-29T14:57:00;8.40;99.90
32728;DHT22;55292;51.844;19.246;2022-12-29T15:02:14;8.40;99.90
32728;DHT22;55292;51.844;19.246;2022-12-29T15:07:19;8.40;99.90
32728;DHT22;55292;51.844;19.246;2022-12-29T15:12:35;8.40;99.90
32728;DHT22;55292;51.844;19.246;2022-12-29T15:17:39;8.40;99.90
32728;DHT22;55292;51.844;19.246;2022-12-29T15:22:50;8.60;99.90
32728;DHT22;55292;51.844;19.246;2022-12-29T15:28:00;8.50;99.90
32728;DHT22;55292;51.844;19.246;2022-12-29T15:33:17;8.60;99.90
32728;DHT22;55292;51.844;19.246;2022-12-29T15:38:27;8.50;99.90
32728;DHT22;55292;51.844;19.246;2022-12-29T15:44:08;8.40;99.90
32728;DHT22;55292;51.844;19.246;2022-12-29T15:49:14;8.50;99.90
32728;DHT22;55292;51.844;19.246;2022-12-29T15:54:20;8.30;99.90
32728;DHT22;55292;51.844;19.246;2022-12-29T15:59:26;8.20;99.90
32728;DHT22;55292;51.844;19.246;2022-12-29T16:04:30;8.10;99.90
32728;DHT22;55292;51.844;19.246;2022-12-29T16:09:59;8.10;99.90
32728;DHT22;55292;51.844;19.246;2022-12-29T16:15:07;8.00;99.90
32728;DHT22;55292;51.844;19.246;2022-12-29T16:20:20;7.80;99.90
32728;DHT22;55292;51.844;19.246;2022-12-29T16:25:33;7.60;99.90
32728;DHT22;55292;51.844;19.246;2022-12-29T16:30:37;7.30;99.90
32728;DHT22;55292;51.844;19.246;2022-12-29T16:51:17;7.80;99.90
32728;DHT22;55292;51.844;19.246;2022-12-29T16:56:23;8.00;99.90
32728;DHT22;55292;51.844;19.246;2022-12-29T17:01:27;8.00;99.90
32728;DHT22;55292;51.844;19.246;2022-12-29T17:06:30;7.90;99.90
32728;DHT22;55292;51.844;19.246;2022-12-29T17:11:33;8.00;99.90
32728;DHT22;55292;51.844;19.246;2022-12-29T17:17:04;8.00;99.90
32728;DHT22;55292;51.844;19.246;2022-12-29T17:22:20;8.00;99.90
32728;DHT22;55292;51.844;19.246;2022-12-29T17:27:37;8.00;99.90
32728;DHT22;55292;51.844;19.246;2022-12-29T17:32:48;8.00;99.90
32728;DHT22;55292;51.844;19.246;2022-12-29T17:37:51;8.10;99.90
32728;DHT22;55292;51.844;19.246;2022-12-29T17:42:56;8.00;99.90
32728;DHT22;55292;51.844;19.246;2022-12-29T17:47:59;8.00;99.90
32728;DHT22;55292;51.844;19.246;2022-12-29T17:53:05;8.10;99.90
32728;DHT22;55292;51.844;19.246;2022-12-29T17:58:21;7.90;99.90
32728;DHT22;55292;51.844;19.246;2022-12-29T18:03:30;7.90;99.90
32728;DHT22;55292;51.844;19.246;2022-12-29T18:08:38;7.70;99.90
32728;DHT22;55292;51.844;19.246;2022-12-29T18:13:41;7.70;99.90
32728;DHT22;55292;51.844;19.246;2022-12-29T18:18:48;7.90;99.90
32728;DHT22;55292;51.844;19.246;2022-12-29T18:23:58;7.90;99.90
32728;DHT22;55292;51.844;19.246;2022-12-29T18:29:00;7.80;99.90
32728;DHT22;55292;51.844;19.246;2022-12-29T18:34:12;7.80;99.90
32728;DHT22;55292;51.844;19.246;2022-12-29T18:39:15;7.70;99.90
32728;DHT22;55292;51.844;19.246;2022-12-29T18:44:18;7.70;99.90
32728;DHT22;55292;51.844;19.246;2022-12-29T18:49:21;7.70;99.90
32728;DHT22;55292;51.844;19.246;2022-12-29T18:54:28;7.70;99.90
32728;DHT22;55292;51.844;19.246;2022-12-29T18:59:31;7.80;99.90
32728;DHT22;55292;51.844;19.246;2022-12-29T19:04:33;7.90;99.90
32728;DHT22;55292;51.844;19.246;2022-12-29T19:09:36;8.00;99.90
32728;DHT22;55292;51.844;19.246;2022-12-29T19:14:39;8.10;99.90
32728;DHT22;55292;51.844;19.246;2022-12-29T19:19:41;8.20;99.90
32728;DHT22;55292;51.844;19.246;2022-12-29T19:24:44;8.20;99.90
32728;DHT22;55292;51.844;19.246;2022-12-29T19:29:47;8.20;99.90
32728;DHT22;55292;51.844;19.246;2022-12-29T19:34:49;8.10;99.90
32728;DHT22;55292;51.844;19.246;2022-12-29T19:39:52;7.80;99.90
32728;DHT22;55292;51.844;19.246;2022-12-29T19:44:54;7.90;99.90
32728;DHT22;55292;51.844;19.246;2022-12-29T19:49:57;7.80;99.90
32728;DHT22;55292;51.844;19.246;2022-12-29T19:55:01;7.70;99.90
32728;DHT22;55292;51.844;19.246;2022-12-29T20:00:04;7.70;99.90
32728;DHT22;55292;51.844;19.246;2022-12-29T20:05:12;7.70;99.90
32728;DHT22;55292;51.844;19.246;2022-12-29T20:10:16;7.60;99.90
32728;DHT22;55292;51.844;19.246;2022-12-29T20:15:18;7.60;99.90
32728;DHT22;55292;51.844;19.246;2022-12-29T20:20:21;7.50;99.90
32728;DHT22;55292;51.844;19.246;2022-12-29T20:25:24;7.60;99.90
32728;DHT22;55292;51.844;19.246;2022-12-29T20:30:57;7.50;99.90
32728;DHT22;55292;51.844;19.246;2022-12-29T20:36:10;7.40;99.90
32728;DHT22;55292;51.844;19.246;2022-12-29T20:41:13;7.20;99.90
32728;DHT22;55292;51.844;19.246;2022-12-29T20:46:15;7.40;99.90
32728;DHT22;55292;51.844;19.246;2022-12-29T20:51:24;7.20;99.90
32728;DHT22;55292;51.844;19.246;2022-12-29T20:56:27;7.10;99.90
32728;DHT22;55292;51.844;19.246;2022-12-29T21:01:32;7.10;99.90
32728;DHT22;55292;51.844;19.246;2022-12-29T21:06:35;7.10;99.90
32728;DHT22;55292;51.844;19.246;2022-12-29T21:11:37;7.20;99.90
32728;DHT22;55292;51.844;19.246;2022-12-29T21:16:40;7.10;99.90
32728;DHT22;55292;51.844;19.246;2022-12-29T21:21:43;6.80;99.90
32728;DHT22;55292;51.844;19.246;2022-12-29T21:26:45;6.50;99.90
32728;DHT22;55292;51.844;19.246;2022-12-29T21:31:49;6.30;99.90
32728;DHT22;55292;51.844;19.246;2022-12-29T21:36:52;6.20;99.90
32728;DHT22;55292;51.844;19.246;2022-12-29T21:41:54;6.00;99.90
32728;DHT22;55292;51.844;19.246;2022-12-29T21:47:03;6.00;99.90
32728;DHT22;55292;51.844;19.246;2022-12-29T21:52:05;5.80;99.90
32728;DHT22;55292;51.844;19.246;2022-12-29T21:57:08;5.80;99.90
32728;DHT22;55292;51.844;19.246;2022-12-29T22:02:25;5.90;99.90
32728;DHT22;55292;51.844;19.246;2022-12-29T22:07:47;5.70;99.90
32728;DHT22;55292;51.844;19.246;2022-12-29T22:13:08;5.50;99.90
32728;DHT22;55292;51.844;19.246;2022-12-29T22:18:11;5.30;99.90
32728;DHT22;55292;51.844;19.246;2022-12-29T22:23:14;5.20;99.90
32728;DHT22;55292;51.844;19.246;2022-12-29T22:28:16;5.00;99.90
32728;DHT22;55292;51.844;19.246;2022-12-29T22:33:19;5.00;99.90
32728;DHT22;55292;51.844;19.246;2022-12-29T22:38:21;5.10;99.90
32728;DHT22;55292;51.844;19.246;2022-12-29T22:43:24;5.10;99.90
32728;DHT22;55292;51.844;19.246;2022-12-29T22:48:27;5.20;99.90
32728;DHT22;55292;51.844;19.246;2022-12-29T22:53:32;5.20;99.90
32728;DHT22;55292;51.844;19.246;2022-12-29T22:58:37;5.30;99.90
32728;DHT22;55292;51.844;19.246;2022-12-29T23:03:41;5.20;99.90
32728;DHT22;55292;51.844;19.246;2022-12-29T23:08:44;5.10;99.90
32728;DHT22;55292;51.844;19.246;2022-12-29T23:13:48;5.10;99.90
32728;DHT22;55292;51.844;19.246;2022-12-29T23:18:51;4.90;99.90
32728;DHT22;55292;51.844;19.246;2022-12-29T23:23:54;4.90;99.90
32728;DHT22;55292;51.844;19.246;2022-12-29T23:28:59;4.80;99.90
32728;DHT22;55292;51.844;19.246;2022-12-29T23:34:03;4.80;99.90
32728;DHT22;55292;51.844;19.246;2022-12-29T23:39:06;4.90;99.90
32728;DHT22;55292;51.844;19.246;2022-12-29T23:44:12;4.90;99.90
32728;DHT22;55292;51.844;19.246;2022-12-29T23:49:14;4.90;99.90
32728;DHT22;55292;51.844;19.246;2022-12-29T23:54:17;4.80;99.90
32728;DHT22;55292;51.844;19.246;2022-12-29T23:59:20;4.60;99.90
